Nichols, FL (33863)

9:45 AM EDT on August 26, 2016 (GMT -0400)
James Towne Place | | Change Station

Elev 128 ft 27.91 °N, 81.84 °W | Updated 13 minutes ago

Clear
Clear
85.6 °F
Feels Like 98 °F
N
3.2
Wind Variable Wind from NE

Today
High -- | Low -- °F
--% Chance of Precip.
Yesterday
High -- | Low -- °F
Precip. -- in
Pressure 30.02 in
Visibility 8.0 miles
Clouds Clear
Heat Index 98 °F
Dew Point 78 °F
Humidity 78%
Rainfall 0.00 in
Snow Depth Not available.
7:03 AM 7:53 PM
Waning Crescent, 34% visible
METAR KBOW 261248Z 04010KT 8SM SKC 27/25 A3002
Pressure 30.02 in
Visibility 8.0 miles
Clouds Clear
Heat Index 98 °F
Dew Point 78 °F
Humidity 78%
Rainfall 0.00 in
Snow Depth Not available.
7:03 AM 7:53 PM
Waning Crescent, 34% visible
METAR KBOW 261248Z 04010KT 8SM SKC 27/25 A3002

10-Day Weather Forecast

Almanac

Astronomy

Aug. 26, 2016 Rise Set
Actual Time
Civil Twilight
Nautical Twilight
Astronomical Twilight
Moon
Length of Visible Light
Length of Day
Tomorrow will be .
, % of the Moon is Illuminated

Today's Extremes

State Highs State Lows

Community

WunderPhotos

Upload Photos

1,935,084 photos uploaded!

WunderBlog® & News

Nearby

Air Quality

  Air Quality AQ Index Pollutant
Not available.

Snow Depth

Station Depth Elevation

Earthquake Activity

City Distance Mag. Time & Date
Minimum magnitude displayed is 2.5.

Coastal Water Temperatures

Place Temperature

Stations

Nearby Weather Stations

Station Location Temp. Windchill Dew Point Humidity Wind Precip. Elev Updated Type
                   

Watches & Warnings

There are currently no watches in effect.